Time;durP1;ratioP1;P1;durP2;ratioP2;P2;SDS_P1;SDS_P2;PMS_P1;PMS_P2;Temp;Humidity;BMP_temperature;BMP_pressure;BME280_temperature;BME280_humidity;BME280_pressure;Samples;Min_cycle;Max_cycle;Signal;HPM_P1;HPM_P2
2022/06/02 00:00:53;;;;;;;9.63;7.23;;;;;;;;;;5035103;28;20172;-67
2022/06/02 00:03:22;;;;;;;8.63;7.63;;;;;;;;;;5053230;28;20167;-67
2022/06/02 00:05:51;;;;;;;8.30;7.30;;;;;;;;;;5053091;28;20178;-67
2022/06/02 00:08:32;;;;;;;9.90;8.33;;;;;;;;;;5052745;28;20199;-67
2022/06/02 00:11:04;;;;;;;11.33;7.83;;;;;;;;;;5052793;28;20209;-68
2022/06/02 00:13:49;;;;;;;8.63;7.73;;;;;;;;;;5034851;28;20233;-68
2022/06/02 00:16:25;;;;;;;9.77;7.67;;;;;;;;;;5052731;28;20547;-67
2022/06/02 00:18:56;;;;;;;10.93;8.57;;;;;;;;;;5052691;28;20213;-67
2022/06/02 00:21:30;;;;;;;10.90;7.73;;;;;;;;;;5034819;28;20182;-67
2022/06/02 00:24:18;;;;;;;9.33;8.27;;;;;;;;;;5034835;28;20643;-67
2022/06/02 00:26:56;;;;;;;9.57;8.33;;;;;;;;;;5052670;28;20717;-67
2022/06/02 00:29:30;;;;;;;9.50;8.07;;;;;;;;;;5052645;28;20623;-67
2022/06/02 00:32:03;;;;;;;9.63;8.17;;;;;;;;;;5053343;28;20576;-67
2022/06/02 00:34:32;;;;;;;35.30;22.80;;;;;;;;;;5034677;28;20206;-67
2022/06/02 00:37:21;;;;;;;25.70;17.30;;;;;;;;;;5052511;28;20702;-66
2022/06/02 00:39:48;;;;;;;18.60;13.07;;;;;;;;;;5039758;28;20191;-67
2022/06/02 00:42:27;;;;;;;20.17;14.63;;;;;;;;;;5052535;28;20229;-67
2022/06/02 00:44:58;;;;;;;17.40;13.17;;;;;;;;;;5035157;28;20179;-67
2022/06/02 00:47:43;;;;;;;13.87;10.40;;;;;;;;;;5052376;28;20198;-67
2022/06/02 00:50:11;;;;;;;14.90;10.03;;;;;;;;;;5034949;28;20201;-67
2022/06/02 00:52:57;;;;;;;13.17;10.43;;;;;;;;;;5052624;28;20198;-67
2022/06/02 00:58:32;;;;;;;10.77;8.60;;;;;;;;;;5056077;28;20205;-67
2022/06/02 01:01:15;;;;;;;9.90;8.73;;;;;;;;;;5038105;28;20186;-68
2022/06/02 01:03:43;;;;;;;9.47;8.30;;;;;;;;;;5055712;28;20604;-67
2022/06/02 01:06:25;;;;;;;9.23;8.27;;;;;;;;;;5055949;28;20258;-67
2022/06/02 01:09:09;;;;;;;9.13;8.13;;;;;;;;;;5055744;28;20225;-67
2022/06/02 01:11:35;;;;;;;9.93;8.73;;;;;;;;;;5056304;28;20213;-67
2022/06/02 01:14:07;;;;;;;10.17;9.13;;;;;;;;;;5055883;28;20202;-67
2022/06/02 01:16:36;;;;;;;10.60;8.93;;;;;;;;;;5055806;28;20167;-67
2022/06/02 01:19:26;;;;;;;10.60;8.77;;;;;;;;;;5055661;28;20693;-67
2022/06/02 01:22:02;;;;;;;10.70;8.90;;;;;;;;;;5055799;28;20159;-67
2022/06/02 01:24:44;;;;;;;10.30;8.63;;;;;;;;;;5055858;28;20174;-67
2022/06/02 01:27:18;;;;;;;13.03;9.73;;;;;;;;;;5055642;28;20232;-67
2022/06/02 01:30:07;;;;;;;11.53;9.07;;;;;;;;;;5055959;28;20580;-66
2022/06/02 01:32:42;;;;;;;11.43;8.50;;;;;;;;;;5055293;28;20189;-67
2022/06/02 01:35:23;;;;;;;12.93;9.60;;;;;;;;;;5037472;28;20557;-67
2022/06/02 01:38:14;;;;;;;12.77;9.73;;;;;;;;;;5055344;28;20220;-67
2022/06/02 01:41:15;;;;;;;11.43;9.50;;;;;;;;;;5055485;28;20155;-67
2022/06/02 01:43:56;;;;;;;11.53;9.67;;;;;;;;;;5055567;28;20200;-67
2022/06/02 01:46:23;;;;;;;13.37;10.40;;;;;;;;;;5037348;28;20228;-67
2022/06/02 01:48:49;;;;;;;15.93;10.23;;;;;;;;;;5037162;28;20203;-67
2022/06/02 01:51:18;;;;;;;11.73;9.30;;;;;;;;;;5037263;28;20232;-67
2022/06/02 01:53:44;;;;;;;11.90;9.57;;;;;;;;;;5054787;28;20210;-67
2022/06/02 01:56:22;;;;;;;11.80;9.57;;;;;;;;;;5036963;28;20201;-67
2022/06/02 01:58:56;;;;;;;12.73;10.40;;;;;;;;;;5054901;28;20198;-67
2022/06/02 02:01:28;;;;;;;12.73;10.23;;;;;;;;;;5036973;28;20171;-67
2022/06/02 02:04:03;;;;;;;13.43;10.80;;;;;;;;;;5055067;28;20159;-68
2022/06/02 02:06:44;;;;;;;13.23;10.93;;;;;;;;;;5053828;28;20529;-67
2022/06/02 02:09:15;;;;;;;14.77;11.30;;;;;;;;;;5054842;28;20206;-67
2022/06/02 02:11:46;;;;;;;12.10;10.70;;;;;;;;;;5036748;28;20182;-67
2022/06/02 02:14:18;;;;;;;13.23;10.30;;;;;;;;;;5036458;28;20671;-67
2022/06/02 02:17:03;;;;;;;14.97;11.33;;;;;;;;;;5054722;28;20189;-67
2022/06/02 02:19:47;;;;;;;19.23;12.97;;;;;;;;;;5054613;28;20224;-67
2022/06/02 02:22:22;;;;;;;17.37;11.97;;;;;;;;;;5036573;28;20181;-67
2022/06/02 02:24:59;;;;;;;17.70;12.83;;;;;;;;;;5054637;28;20170;-67
2022/06/02 02:27:30;;;;;;;15.57;12.00;;;;;;;;;;5036343;28;20209;-67
2022/06/02 02:30:09;;;;;;;15.97;12.33;;;;;;;;;;5054524;28;20540;-67
2022/06/02 02:32:41;;;;;;;16.47;11.87;;;;;;;;;;5054422;28;20182;-67
2022/06/02 02:35:06;;;;;;;15.50;11.50;;;;;;;;;;5054281;28;20168;-67
2022/06/02 02:37:52;;;;;;;15.87;12.20;;;;;;;;;;5054316;28;20214;-67
2022/06/02 02:40:24;;;;;;;18.47;12.50;;;;;;;;;;5054386;28;20175;-67
2022/06/02 02:42:52;;;;;;;18.23;12.70;;;;;;;;;;5054081;28;20203;-67
2022/06/02 02:45:37;;;;;;;17.60;12.17;;;;;;;;;;5053874;28;20647;-67
2022/06/02 02:48:26;;;;;;;16.57;11.70;;;;;;;;;;5053811;28;20745;-67
2022/06/02 02:50:55;;;;;;;18.17;12.80;;;;;;;;;;5054354;28;20308;-67
2022/06/02 02:53:26;;;;;;;24.47;14.53;;;;;;;;;;5053736;28;20248;-67
2022/06/02 02:56:16;;;;;;;24.10;14.80;;;;;;;;;;5054310;28;20169;-68
2022/06/02 02:58:51;;;;;;;21.03;13.40;;;;;;;;;;5008694;28;20210;-67
2022/06/02 03:01:43;;;;;;;22.00;14.60;;;;;;;;;;5035940;28;20594;-67
2022/06/02 03:04:20;;;;;;;23.03;14.20;;;;;;;;;;5053580;28;20619;-67
2022/06/02 03:06:54;;;;;;;21.90;15.17;;;;;;;;;;5035774;28;20172;-67
2022/06/02 03:09:27;;;;;;;20.40;13.67;;;;;;;;;;5053877;28;20618;-67
2022/06/02 03:11:53;;;;;;;20.83;13.60;;;;;;;;;;5053710;28;20175;-67
2022/06/02 03:14:22;;;;;;;17.60;13.47;;;;;;;;;;5035510;28;20206;-67
2022/06/02 03:17:03;;;;;;;19.30;13.53;;;;;;;;;;5035240;28;20178;-67
2022/06/02 03:19:48;;;;;;;19.53;13.17;;;;;;;;;;5053553;28;20229;-68
2022/06/02 03:22:32;;;;;;;17.57;12.67;;;;;;;;;;5053615;28;20200;-67
2022/06/02 03:25:10;;;;;;;15.57;12.33;;;;;;;;;;5053571;28;20592;-67
2022/06/02 03:27:40;;;;;;;17.50;13.40;;;;;;;;;;5035460;28;20265;-67
2022/06/02 03:30:12;;;;;;;17.63;12.83;;;;;;;;;;5035534;28;20183;-67
2022/06/02 03:32:41;;;;;;;17.17;12.80;;;;;;;;;;5035332;28;20185;-67
2022/06/02 03:35:07;;;;;;;15.77;12.47;;;;;;;;;;5053253;28;20174;-65
2022/06/02 03:37:52;;;;;;;17.50;13.00;;;;;;;;;;5053018;28;20302;-67
2022/06/02 03:40:22;;;;;;;17.53;13.30;;;;;;;;;;5053314;28;20174;-67
2022/06/02 03:42:48;;;;;;;21.50;13.77;;;;;;;;;;5035564;28;20181;-66
2022/06/02 03:45:26;;;;;;;17.67;13.30;;;;;;;;;;5054013;28;20178;-66
2022/06/02 03:48:07;;;;;;;17.17;13.90;;;;;;;;;;5053041;28;20194;-66
2022/06/02 03:50:33;;;;;;;18.17;14.00;;;;;;;;;;5053055;28;20182;-67
2022/06/02 03:53:23;;;;;;;17.20;13.70;;;;;;;;;;5052843;28;20689;-66
2022/06/02 03:56:10;;;;;;;15.80;12.60;;;;;;;;;;5035084;28;20197;-67
2022/06/02 03:58:43;;;;;;;18.57;13.77;;;;;;;;;;5035190;28;20201;-66
2022/06/02 04:01:11;;;;;;;17.83;14.23;;;;;;;;;;5035125;28;20266;-66
2022/06/02 04:03:45;;;;;;;19.53;14.27;;;;;;;;;;5052783;28;20189;-67
2022/06/02 04:06:27;;;;;;;18.80;14.53;;;;;;;;;;5035126;28;20175;-66
2022/06/02 04:08:59;;;;;;;19.93;15.30;;;;;;;;;;5052912;28;20562;-66
2022/06/02 04:14:53;;;;;;;19.47;13.53;;;;;;;;;;5052891;28;20205;-66
2022/06/02 04:17:29;;;;;;;18.43;14.93;;;;;;;;;;5034814;28;20612;-66
2022/06/02 04:22:55;;;;;;;18.90;13.83;;;;;;;;;;5052825;28;20212;-66
2022/06/02 04:25:27;;;;;;;20.90;15.20;;;;;;;;;;5052781;28;20589;-66
2022/06/02 04:27:59;;;;;;;16.93;13.83;;;;;;;;;;5052794;28;20198;-66
2022/06/02 04:30:34;;;;;;;18.87;14.53;;;;;;;;;;5056284;28;20167;-65
2022/06/02 04:33:26;;;;;;;18.37;14.60;;;;;;;;;;5057060;28;20251;-65
2022/06/02 04:36:00;;;;;;;19.07;14.93;;;;;;;;;;5052374;28;20187;-66
2022/06/02 04:38:45;;;;;;;17.97;14.77;;;;;;;;;;5056473;28;20305;-66
2022/06/02 04:41:29;;;;;;;20.30;14.93;;;;;;;;;;5056355;28;20309;-66
2022/06/02 04:44:14;;;;;;;19.90;14.00;;;;;;;;;;5038315;28;20276;-66
2022/06/02 04:46:52;;;;;;;17.77;13.87;;;;;;;;;;5056051;28;20206;-67
2022/06/02 04:49:23;;;;;;;19.97;15.97;;;;;;;;;;5056071;28;20198;-66
2022/06/02 04:52:06;;;;;;;18.33;14.47;;;;;;;;;;5038127;28;20635;-66
2022/06/02 04:54:58;;;;;;;21.67;15.43;;;;;;;;;;5038130;28;20206;-67
2022/06/02 04:57:30;;;;;;;17.60;14.90;;;;;;;;;;5018417;28;20225;-67
2022/06/02 05:00:02;;;;;;;16.17;13.03;;;;;;;;;;5038148;28;20225;-68
2022/06/02 05:03:04;;;;;;;14.67;12.27;;;;;;;;;;5056228;28;20258;-67
2022/06/02 05:05:35;;;;;;;11.40;10.20;;;;;;;;;;4955788;29;20187;-67
2022/06/02 05:08:20;;;;;;;10.50;9.37;;;;;;;;;;5022423;28;20240;-66
2022/06/02 05:10:50;;;;;;;10.63;9.63;;;;;;;;;;5038130;28;20174;-66
2022/06/02 05:13:22;;;;;;;10.50;9.23;;;;;;;;;;5037983;28;20202;-66
2022/06/02 05:15:59;;;;;;;15.00;9.37;;;;;;;;;;5055757;28;20594;-66
2022/06/02 05:18:42;;;;;;;12.37;9.97;;;;;;;;;;5037573;28;20300;-67
2022/06/02 05:21:14;;;;;;;12.67;10.00;;;;;;;;;;5055676;28;20199;-66
2022/06/02 05:23:59;;;;;;;12.17;10.03;;;;;;;;;;5055316;28;20261;-66
2022/06/02 05:26:34;;;;;;;13.07;10.43;;;;;;;;;;5037949;28;20530;-66
2022/06/02 05:29:12;;;;;;;11.10;10.00;;;;;;;;;;5055469;28;20205;-66
2022/06/02 05:31:54;;;;;;;15.60;10.70;;;;;;;;;;5055691;28;20173;-66
2022/06/02 05:34:20;;;;;;;13.70;11.50;;;;;;;;;;5037361;28;20800;-66
2022/06/02 05:37:04;;;;;;;14.53;11.50;;;;;;;;;;5055209;28;20206;-67
2022/06/02 05:39:39;;;;;;;15.97;12.70;;;;;;;;;;5037302;28;20230;-67
2022/06/02 05:42:14;;;;;;;14.77;12.93;;;;;;;;;;5055659;28;20178;-67
2022/06/02 05:44:52;;;;;;;16.23;13.13;;;;;;;;;;5037330;28;20312;-66
2022/06/02 05:47:18;;;;;;;15.97;13.23;;;;;;;;;;5055748;28;20587;-67
2022/06/02 05:49:53;;;;;;;17.57;12.33;;;;;;;;;;5055310;28;20202;-67
2022/06/02 05:52:19;;;;;;;14.33;11.70;;;;;;;;;;5054973;28;20292;-67
2022/06/02 05:55:03;;;;;;;13.20;11.03;;;;;;;;;;5036980;28;20652;-67
2022/06/02 05:57:37;;;;;;;13.63;11.80;;;;;;;;;;5055087;28;20191;-68
2022/06/02 06:00:11;;;;;;;17.57;12.17;;;;;;;;;;5037411;28;20174;-67
2022/06/02 06:02:55;;;;;;;13.13;11.37;;;;;;;;;;5055145;28;20165;-67
2022/06/02 06:05:21;;;;;;;15.23;12.33;;;;;;;;;;5036822;28;20178;-67
2022/06/02 06:07:53;;;;;;;15.70;12.93;;;;;;;;;;5054713;28;20194;-67
2022/06/02 06:10:20;;;;;;;15.87;13.00;;;;;;;;;;5054978;28;20186;-68
2022/06/02 06:12:58;;;;;;;15.43;13.63;;;;;;;;;;5054524;28;20194;-67
2022/06/02 06:15:42;;;;;;;19.97;14.63;;;;;;;;;;5036998;28;20182;-66
2022/06/02 06:18:09;;;;;;;18.73;14.50;;;;;;;;;;5036778;28;20202;-67
2022/06/02 06:20:52;;;;;;;19.00;15.40;;;;;;;;;;5036692;28;20209;-67
2022/06/02 06:23:38;;;;;;;19.20;15.37;;;;;;;;;;5054872;28;20201;-67
2022/06/02 06:26:28;;;;;;;23.77;15.93;;;;;;;;;;5036503;28;20228;-67
2022/06/02 06:29:05;;;;;;;19.60;14.70;;;;;;;;;;5054738;28;20678;-67
2022/06/02 06:31:50;;;;;;;20.37;15.63;;;;;;;;;;5054597;28;20166;-67
2022/06/02 06:34:31;;;;;;;22.47;15.20;;;;;;;;;;5054315;28;20201;-67
2022/06/02 06:37:12;;;;;;;22.57;16.07;;;;;;;;;;5054144;28;20185;-67
2022/06/02 06:39:50;;;;;;;21.30;16.30;;;;;;;;;;5054579;28;20190;-67
2022/06/02 06:42:16;;;;;;;23.40;17.37;;;;;;;;;;5054255;28;20159;-67
2022/06/02 06:44:48;;;;;;;20.40;15.17;;;;;;;;;;5054370;28;20239;-66
2022/06/02 06:47:17;;;;;;;22.97;16.40;;;;;;;;;;5037082;28;20578;-66
2022/06/02 06:49:52;;;;;;;19.77;15.87;;;;;;;;;;5036274;28;20182;-67
2022/06/02 06:52:37;;;;;;;22.03;16.10;;;;;;;;;;5036030;28;20265;-66
2022/06/02 06:55:23;;;;;;;19.83;15.50;;;;;;;;;;5054625;28;20188;-66
2022/06/02 06:58:02;;;;;;;22.37;15.17;;;;;;;;;;5054246;28;20199;-67
2022/06/02 07:00:35;;;;;;;23.20;15.97;;;;;;;;;;5054556;28;20166;-67
2022/06/02 07:03:11;;;;;;;20.93;14.50;;;;;;;;;;5054492;28;20151;-67
2022/06/02 07:05:39;;;;;;;22.90;15.70;;;;;;;;;;5036627;28;20173;-67
2022/06/02 07:08:08;;;;;;;21.80;15.40;;;;;;;;;;5054704;28;20194;-68
2022/06/02 07:10:55;;;;;;;20.37;13.93;;;;;;;;;;5036246;28;20655;-67
2022/06/02 07:13:31;;;;;;;23.30;14.53;;;;;;;;;;5036236;28;20216;-67
2022/06/02 07:16:00;;;;;;;18.63;12.77;;;;;;;;;;5036288;28;20205;-68
2022/06/02 07:18:45;;;;;;;18.83;11.40;;;;;;;;;;5054074;28;20200;-68
2022/06/02 07:21:18;;;;;;;14.13;10.80;;;;;;;;;;5035923;28;20174;-67
2022/06/02 07:23:51;;;;;;;17.33;11.80;;;;;;;;;;5036075;28;20187;-67
2022/06/02 07:26:36;;;;;;;13.90;10.87;;;;;;;;;;5036172;28;20177;-67
2022/06/02 07:29:21;;;;;;;14.90;9.77;;;;;;;;;;5036112;28;20678;-67
2022/06/02 07:31:46;;;;;;;13.50;10.90;;;;;;;;;;5053922;28;20241;-67
2022/06/02 07:34:19;;;;;;;16.03;10.93;;;;;;;;;;5036124;28;20669;-67
2022/06/02 07:36:48;;;;;;;13.37;9.67;;;;;;;;;;5035945;28;20202;-67
2022/06/02 07:39:26;;;;;;;10.23;8.60;;;;;;;;;;5053795;28;20272;-67
2022/06/02 07:42:24;;;;;;;12.03;8.67;;;;;;;;;;5053897;28;20178;-66
2022/06/02 07:45:05;;;;;;;11.67;8.60;;;;;;;;;;4992984;28;20236;-67
2022/06/02 07:47:41;;;;;;;12.73;8.83;;;;;;;;;;5053595;28;20674;-67
2022/06/02 07:50:07;;;;;;;13.03;9.57;;;;;;;;;;5035997;28;20170;-67
2022/06/02 07:52:45;;;;;;;13.70;8.83;;;;;;;;;;5053825;28;20253;-67
2022/06/02 07:55:31;;;;;;;11.60;8.90;;;;;;;;;;5053809;28;20186;-66
2022/06/02 07:58:08;;;;;;;14.30;9.70;;;;;;;;;;5035677;28;20225;-68
2022/06/02 08:00:43;;;;;;;11.27;8.87;;;;;;;;;;5035756;28;20255;-66
2022/06/02 08:03:28;;;;;;;14.90;9.43;;;;;;;;;;5054053;28;20213;-67
2022/06/02 08:06:09;;;;;;;11.47;8.07;;;;;;;;;;5057636;28;20702;-67
2022/06/02 08:08:43;;;;;;;10.83;8.67;;;;;;;;;;5039498;28;20678;-67
2022/06/02 08:11:27;;;;;;;9.73;8.47;;;;;;;;;;5039500;28;20170;-67
2022/06/02 08:14:11;;;;;;;13.70;7.87;;;;;;;;;;5039485;28;20209;-66
2022/06/02 08:16:40;;;;;;;12.33;9.70;;;;;;;;;;5057496;28;20182;-67
2022/06/02 08:19:23;;;;;;;15.40;9.43;;;;;;;;;;5039347;28;20344;-67
2022/06/02 08:21:52;;;;;;;13.73;10.03;;;;;;;;;;5039492;28;20175;-67
2022/06/02 08:24:24;;;;;;;12.43;9.63;;;;;;;;;;5057092;28;20185;-67
2022/06/02 08:26:57;;;;;;;14.07;9.73;;;;;;;;;;5056898;28;20174;-66
2022/06/02 08:29:38;;;;;;;14.97;11.03;;;;;;;;;;5057052;28;20167;-67
2022/06/02 08:32:23;;;;;;;16.13;11.67;;;;;;;;;;5039035;28;20663;-67
2022/06/02 08:35:07;;;;;;;15.47;11.70;;;;;;;;;;5038825;28;20654;-66
2022/06/02 08:37:39;;;;;;;16.17;12.30;;;;;;;;;;5056741;28;20635;-67
2022/06/02 08:40:08;;;;;;;15.03;10.50;;;;;;;;;;5056864;28;20179;-67
2022/06/02 08:42:54;;;;;;;19.60;12.10;;;;;;;;;;5038503;28;20240;-67
2022/06/02 08:45:38;;;;;;;15.43;12.13;;;;;;;;;;5038549;28;20182;-66
2022/06/02 08:48:29;;;;;;;17.10;13.43;;;;;;;;;;5056417;28;20209;-67
2022/06/02 08:51:18;;;;;;;20.63;15.00;;;;;;;;;;5091820;22;20244;-67
2022/06/02 08:54:00;;;;;;;17.33;13.63;;;;;;;;;;5066165;28;20586;-66
2022/06/02 08:56:42;;;;;;;15.87;13.10;;;;;;;;;;5058551;28;20166;-66
2022/06/02 08:59:09;;;;;;;13.90;11.90;;;;;;;;;;5058314;28;20174;-67
2022/06/02 09:01:41;;;;;;;15.90;13.10;;;;;;;;;;5076472;28;20205;-67
2022/06/02 09:04:26;;;;;;;14.00;12.13;;;;;;;;;;5058282;28;20223;-67
2022/06/02 09:07:11;;;;;;;17.40;12.63;;;;;;;;;;5076161;28;20181;-67
2022/06/02 09:09:56;;;;;;;16.73;12.67;;;;;;;;;;5058025;28;20185;-67
2022/06/02 09:12:41;;;;;;;16.07;13.40;;;;;;;;;;5075961;28;20173;-66
2022/06/02 09:15:16;;;;;;;17.10;13.93;;;;;;;;;;5075576;28;20173;-67
2022/06/02 09:18:00;;;;;;;20.53;14.20;;;;;;;;;;5076539;28;20218;-66
2022/06/02 09:20:34;;;;;;;19.90;14.97;;;;;;;;;;5075889;28;20272;-66
2022/06/02 09:23:07;;;;;;;19.73;14.63;;;;;;;;;;5076278;28;20185;-67
2022/06/02 09:25:51;;;;;;;18.27;15.40;;;;;;;;;;5076398;28;20158;-67
2022/06/02 09:28:23;;;;;;;20.10;15.87;;;;;;;;;;5076334;28;20177;-65
2022/06/02 09:31:08;;;;;;;18.30;15.00;;;;;;;;;;5077900;28;20567;-66
2022/06/02 09:33:55;;;;;;;18.17;16.10;;;;;;;;;;5058763;28;20202;-66
2022/06/02 09:36:40;;;;;;;20.50;16.83;;;;;;;;;;5075542;28;20166;-67
2022/06/02 09:39:18;;;;;;;21.07;17.00;;;;;;;;;;5075694;28;20558;-64
2022/06/02 09:41:47;;;;;;;20.13;15.13;;;;;;;;;;5076049;28;20679;-65
2022/06/02 09:44:17;;;;;;;26.90;17.60;;;;;;;;;;5075937;28;20178;-65
2022/06/02 09:46:59;;;;;;;20.43;15.53;;;;;;;;;;5075430;28;20232;-65
2022/06/02 09:49:41;;;;;;;19.73;16.30;;;;;;;;;;5075511;28;20170;-66
2022/06/02 09:52:25;;;;;;;20.43;15.80;;;;;;;;;;5057345;28;20264;-65
2022/06/02 09:55:21;;;;;;;18.77;13.27;;;;;;;;;;5057582;28;20209;-66
2022/06/02 09:58:05;;;;;;;15.87;13.37;;;;;;;;;;5058438;28;20619;-66
2022/06/02 10:00:44;;;;;;;17.17;14.50;;;;;;;;;;5075668;28;20215;-66
2022/06/02 10:03:16;;;;;;;21.17;14.73;;;;;;;;;;5057457;28;20223;-66
2022/06/02 10:06:06;;;;;;;15.33;12.67;;;;;;;;;;5076058;28;20188;-67
2022/06/02 10:08:53;;;;;;;14.73;11.43;;;;;;;;;;5064948;28;20271;-66
2022/06/02 10:11:22;;;;;;;15.13;12.13;;;;;;;;;;5075168;28;20197;-66
2022/06/02 10:14:15;;;;;;;19.17;11.63;;;;;;;;;;5057030;28;20206;-66
2022/06/02 10:16:44;;;;;;;17.73;10.30;;;;;;;;;;5057517;28;20173;-66
2022/06/02 10:19:13;;;;;;;12.40;9.13;;;;;;;;;;5075596;28;20185;-64
2022/06/02 10:21:43;;;;;;;13.70;10.40;;;;;;;;;;5076336;28;20213;-66
2022/06/02 10:24:11;;;;;;;11.87;8.97;;;;;;;;;;5076422;28;20178;-65
2022/06/02 10:26:40;;;;;;;11.63;9.17;;;;;;;;;;5057497;28;20188;-66
2022/06/02 10:29:22;;;;;;;11.20;8.87;;;;;;;;;;5075646;28;20231;-66
2022/06/02 10:32:07;;;;;;;14.17;9.43;;;;;;;;;;5057433;28;20226;-66
2022/06/02 10:34:51;;;;;;;13.07;8.17;;;;;;;;;;5075946;28;20204;-66
2022/06/02 10:37:35;;;;;;;10.73;8.63;;;;;;;;;;5075504;28;20503;-64
2022/06/02 10:40:16;;;;;;;13.17;8.47;;;;;;;;;;5077168;28;20197;-64
2022/06/02 10:43:08;;;;;;;11.50;9.00;;;;;;;;;;5075229;28;20182;-65
2022/06/02 10:45:46;;;;;;;9.93;7.57;;;;;;;;;;5070725;28;20700;-65
2022/06/02 10:48:31;;;;;;;10.37;7.83;;;;;;;;;;5075205;28;20158;-64
2022/06/02 10:51:15;;;;;;;10.53;8.53;;;;;;;;;;5074777;28;20343;-65
2022/06/02 10:53:52;;;;;;;10.10;8.30;;;;;;;;;;5056540;28;20218;-65
2022/06/02 10:56:22;;;;;;;12.07;9.47;;;;;;;;;;5075763;28;20181;-64
2022/06/02 10:58:50;;;;;;;11.53;9.10;;;;;;;;;;5075655;28;20174;-65
2022/06/02 11:01:34;;;;;;;10.03;8.63;;;;;;;;;;5076150;28;20193;-65
2022/06/02 11:04:06;;;;;;;11.60;9.07;;;;;;;;;;5057763;28;20600;-65
2022/06/02 11:07:02;;;;;;;12.67;8.87;;;;;;;;;;5074586;28;20178;-65
2022/06/02 11:09:42;;;;;;;9.10;8.20;;;;;;;;;;5075021;28;20200;-64
2022/06/02 11:12:29;;;;;;;12.53;8.17;;;;;;;;;;5075467;28;20178;-65
2022/06/02 11:14:55;;;;;;;9.83;7.60;;;;;;;;;;5056847;28;20209;-65
2022/06/02 11:17:21;;;;;;;9.43;8.27;;;;;;;;;;5055898;28;20178;-65
2022/06/02 11:20:06;;;;;;;10.33;8.27;;;;;;;;;;5055986;28;20269;-65
2022/06/02 11:22:50;;;;;;;9.87;8.20;;;;;;;;;;5055783;28;20178;-64
2022/06/02 11:25:36;;;;;;;8.77;7.87;;;;;;;;;;5073866;28;20203;-65
2022/06/02 11:28:08;;;;;;;9.77;7.57;;;;;;;;;;5073901;28;20639;-64
2022/06/02 11:30:54;;;;;;;8.77;7.33;;;;;;;;;;5056911;28;20714;-65
2022/06/02 11:33:23;;;;;;;9.23;7.23;;;;;;;;;;5074095;28;20212;-65
2022/06/02 11:36:04;;;;;;;8.33;7.10;;;;;;;;;;5073941;28;20217;-64
2022/06/02 11:38:33;;;;;;;9.67;6.77;;;;;;;;;;5073718;28;20181;-64
2022/06/02 11:41:08;;;;;;;9.50;7.67;;;;;;;;;;5055543;28;20231;-67
2022/06/02 11:43:57;;;;;;;9.23;6.67;;;;;;;;;;5074189;28;20523;-66
2022/06/02 11:46:39;;;;;;;7.47;6.27;;;;;;;;;;5063115;28;20287;-65
2022/06/02 11:49:05;;;;;;;8.53;7.27;;;;;;;;;;5055578;28;20190;-65
2022/06/02 11:51:34;;;;;;;8.70;6.97;;;;;;;;;;5073330;28;20740;-66
2022/06/02 11:54:10;;;;;;;8.63;6.93;;;;;;;;;;5073544;28;20205;-67
2022/06/02 11:56:39;;;;;;;6.97;5.90;;;;;;;;;;5073403;28;20178;-66
2022/06/02 11:59:17;;;;;;;7.57;6.77;;;;;;;;;;5055413;28;20182;-66
2022/06/02 12:01:49;;;;;;;7.70;5.90;;;;;;;;;;5073595;28;20193;-65
2022/06/02 12:04:24;;;;;;;8.17;5.73;;;;;;;;;;5055425;28;20609;-66
2022/06/02 12:07:05;;;;;;;6.23;5.33;;;;;;;;;;5055382;28;20177;-66
2022/06/02 12:09:38;;;;;;;6.53;5.50;;;;;;;;;;5073305;28;20173;-66
2022/06/02 12:12:26;;;;;;;6.53;5.33;;;;;;;;;;5073242;28;20209;-66
2022/06/02 12:15:07;;;;;;;5.10;4.60;;;;;;;;;;5055104;28;20205;-66
2022/06/02 12:17:36;;;;;;;7.70;4.80;;;;;;;;;;5073410;28;20170;-66
2022/06/02 12:20:05;;;;;;;5.10;4.30;;;;;;;;;;5055197;28;20674;-68
2022/06/02 12:22:37;;;;;;;7.13;5.00;;;;;;;;;;5073149;28;20170;-66
2022/06/02 12:25:21;;;;;;;5.30;4.60;;;;;;;;;;5073247;28;20201;-66
2022/06/02 12:27:51;;;;;;;5.57;4.23;;;;;;;;;;5073272;28;20194;-66
2022/06/02 12:30:52;;;;;;;7.50;5.03;;;;;;;;;;5073306;28;20201;-66
2022/06/02 12:33:19;;;;;;;5.13;4.63;;;;;;;;;;4992063;28;20326;-66
2022/06/02 12:36:04;;;;;;;4.77;3.97;;;;;;;;;;5043850;28;20561;-66
2022/06/02 12:38:39;;;;;;;5.03;4.33;;;;;;;;;;5055502;28;20568;-67
2022/06/02 12:41:17;;;;;;;8.03;4.83;;;;;;;;;;5073363;28;20189;-68
2022/06/02 12:43:43;;;;;;;7.97;5.17;;;;;;;;;;5055283;28;20532;-66
2022/06/02 12:46:17;;;;;;;6.30;4.43;;;;;;;;;;5073836;28;20203;-66
2022/06/02 12:49:02;;;;;;;4.37;3.97;;;;;;;;;;5074040;28;20169;-65
2022/06/02 12:51:39;;;;;;;6.00;4.73;;;;;;;;;;5058943;28;20271;-67
2022/06/02 12:54:14;;;;;;;5.67;4.00;;;;;;;;;;5077637;28;20198;-65
2022/06/02 12:56:46;;;;;;;4.07;3.67;;;;;;;;;;5077487;28;20223;-66
2022/06/02 12:59:45;;;;;;;5.93;4.43;;;;;;;;;;5077673;28;20174;-66
2022/06/02 13:02:29;;;;;;;6.13;3.73;;;;;;;;;;5034416;28;20247;-66
2022/06/02 13:05:14;;;;;;;5.47;3.93;;;;;;;;;;5077114;28;20188;-67
2022/06/02 13:07:58;;;;;;;4.07;3.67;;;;;;;;;;5076362;28;20524;-66
2022/06/02 13:10:43;;;;;;;3.83;3.40;;;;;;;;;;5058254;28;20216;-66
2022/06/02 13:13:33;;;;;;;3.77;3.43;;;;;;;;;;5076046;28;20208;-66
2022/06/02 13:16:22;;;;;;;5.23;3.43;;;;;;;;;;5076315;28;20209;-66
2022/06/02 13:19:12;;;;;;;4.93;4.00;;;;;;;;;;5076338;28;20169;-66
2022/06/02 13:21:44;;;;;;;4.13;3.60;;;;;;;;;;5076020;28;20259;-64
2022/06/02 13:24:32;;;;;;;5.17;4.67;;;;;;;;;;5058785;28;20186;-66
2022/06/02 13:27:17;;;;;;;4.60;4.10;;;;;;;;;;5076068;28;20162;-66
2022/06/02 13:30:01;;;;;;;4.43;3.80;;;;;;;;;;5075725;28;20165;-66
2022/06/02 13:32:42;;;;;;;5.00;4.20;;;;;;;;;;5076022;28;20188;-66
2022/06/02 13:35:08;;;;;;;4.93;4.43;;;;;;;;;;5057892;28;20237;-67
2022/06/02 13:37:37;;;;;;;4.20;3.83;;;;;;;;;;5057626;28;20262;-66
2022/06/02 13:40:18;;;;;;;3.53;3.23;;;;;;;;;;5075593;28;20276;-66
2022/06/02 13:43:05;;;;;;;4.53;4.10;;;;;;;;;;5057925;28;20555;-66
2022/06/02 13:45:38;;;;;;;4.93;4.40;;;;;;;;;;5075920;28;20611;-66
2022/06/02 13:48:24;;;;;;;4.70;4.00;;;;;;;;;;5057552;28;20189;-66
2022/06/02 13:50:50;;;;;;;5.50;4.57;;;;;;;;;;5074218;28;20304;-66
2022/06/02 13:53:35;;;;;;;4.33;3.93;;;;;;;;;;5075309;28;20297;-66
2022/06/02 13:59:07;;;;;;;4.73;4.33;;;;;;;;;;5075366;28;20173;-66
2022/06/02 14:01:33;;;;;;;7.07;4.53;;;;;;;;;;5074092;28;20189;-68
2022/06/02 14:04:05;;;;;;;4.13;3.73;;;;;;;;;;5057365;28;20615;-66
2022/06/02 14:06:36;;;;;;;4.67;4.27;;;;;;;;;;5057176;28;20177;-66
2022/06/02 14:09:23;;;;;;;3.80;3.50;;;;;;;;;;5057145;28;20207;-65
2022/06/02 14:11:51;;;;;;;4.83;4.00;;;;;;;;;;5057330;28;20197;-66
2022/06/02 14:14:23;;;;;;;3.97;3.57;;;;;;;;;;5075024;28;20201;-66
2022/06/02 14:16:58;;;;;;;4.87;4.47;;;;;;;;;;5074992;28;20265;-66
2022/06/02 14:19:42;;;;;;;4.40;4.00;;;;;;;;;;5057238;28;20228;-66
2022/06/02 14:22:27;;;;;;;3.80;3.40;;;;;;;;;;5074944;28;20174;-66
2022/06/02 14:24:56;;;;;;;4.57;4.17;;;;;;;;;;5076467;28;20181;-66
2022/06/02 14:27:39;;;;;;;5.73;4.50;;;;;;;;;;5075135;28;20202;-66
2022/06/02 14:30:09;;;;;;;5.53;4.73;;;;;;;;;;5075384;28;20661;-66
2022/06/02 14:32:40;;;;;;;4.47;4.00;;;;;;;;;;5074707;28;20226;-67
2022/06/02 14:35:09;;;;;;;4.07;3.70;;;;;;;;;;5075460;28;20229;-67
2022/06/02 14:37:53;;;;;;;4.20;3.67;;;;;;;;;;5074400;28;20650;-66
2022/06/02 14:40:25;;;;;;;3.80;3.50;;;;;;;;;;5074478;28;20288;-66
2022/06/02 14:43:10;;;;;;;3.70;3.40;;;;;;;;;;5074469;28;20154;-66
2022/06/02 14:45:55;;;;;;;4.10;3.67;;;;;;;;;;5074381;28;20178;-66
2022/06/02 14:48:21;;;;;;;5.73;3.27;;;;;;;;;;5056462;28;20181;-66
2022/06/02 14:50:47;;;;;;;4.13;3.47;;;;;;;;;;5074393;28;20213;-66
2022/06/02 14:53:19;;;;;;;3.53;3.23;;;;;;;;;;5074170;28;20202;-66
2022/06/02 14:55:52;;;;;;;4.10;3.77;;;;;;;;;;5074628;28;20233;-66
2022/06/02 14:58:38;;;;;;;5.13;3.70;;;;;;;;;;5074608;28;20170;-66
2022/06/02 15:01:04;;;;;;;3.87;3.57;;;;;;;;;;5074744;28;20251;-66
2022/06/02 15:03:50;;;;;;;5.13;3.63;;;;;;;;;;5075018;28;20230;-66
2022/06/02 15:06:16;;;;;;;3.83;3.53;;;;;;;;;;5074859;28;20320;-66
2022/06/02 15:09:01;;;;;;;3.37;3.07;;;;;;;;;;5056587;28;20295;-66
2022/06/02 15:11:45;;;;;;;3.83;3.53;;;;;;;;;;5058834;28;20578;-66
2022/06/02 15:14:14;;;;;;;3.13;2.90;;;;;;;;;;5076906;28;20208;-66
2022/06/02 15:17:03;;;;;;;3.63;3.10;;;;;;;;;;5077320;28;20173;-67
2022/06/02 15:19:45;;;;;;;3.80;3.10;;;;;;;;;;5059832;28;20197;-66
2022/06/02 15:22:28;;;;;;;3.27;2.90;;;;;;;;;;5075342;28;20162;-67
2022/06/02 15:25:13;;;;;;;4.47;4.07;;;;;;;;;;5074309;28;20219;-67
2022/06/02 15:27:57;;;;;;;5.00;3.47;;;;;;;;;;5056078;28;20566;-66
2022/06/02 15:30:26;;;;;;;3.20;2.90;;;;;;;;;;5073741;28;20204;-66
2022/06/02 15:33:15;;;;;;;4.80;3.13;;;;;;;;;;5074176;28;20239;-66
2022/06/02 15:36:00;;;;;;;3.30;2.90;;;;;;;;;;5073920;28;20194;-67
2022/06/02 15:38:29;;;;;;;2.63;2.43;;;;;;;;;;5055688;28;20714;-66
2022/06/02 15:40:58;;;;;;;3.10;2.80;;;;;;;;;;5055467;28;20201;-67